Silvania, Brazil
Current Conditions -  °F | °C
As of 4:00 AM on Thursday 27 Nov 2014 (Local Time) from SBAN Reporting Station
Clear Clear  
Wind Chill: 66°   Ceiling: Unl
Heat Index: 66°   Visibility: 6mi
Dew Point: 63°   Wind: 3mph
Humidity: 88%   Direction: 350°N
Pressure: 30.03"   Gusts: NA
Location:  16.66°S, 48.61°W
Report Text: SBAN 270600Z 35003KT CAVOK 19/17 Q1017
Loading
Personal Weather Stations






























Interactive Weather Map New forecast layout! Learn more

10-Day Weather Forecast

Advertisements
Track Severe Weather on mobile